This is the latest recevied weather packets stored in our database for station/object HG8LXL-2. If no packets are shown the sender has not sent any weather packets the latest 10 day(s).
| Time | Temp. | Humidity | Pressure | Rain* | Wind** | Luminosity | Snow |
|---|---|---|---|---|---|---|---|
| 1777720200 | 25.56° C | 17% | 1018.3 hPa | - | - | - | - |
| 1777719900 | 25.56° C | 16% | 1018.4 hPa | - | - | - | - |
| 1777719600 | 26.11° C | 16% | 1018.5 hPa | - | - | - | - |
| 1777719300 | 26.67° C | 15% | 1018.4 hPa | - | - | - | - |
| 1777719000 | 25.56° C | 17% | 1018.6 hPa | - | - | - | - |
| 1777718700 | 25° C | 17% | 1018.7 hPa | - | - | - | - |
| 1777718400 | 26.11° C | 17% | 1018.6 hPa | - | - | - | - |
| 1777718100 | 25.56° C | 17% | 1018.8 hPa | - | - | - | - |
| 1777717800 | 25° C | 18% | 1018.8 hPa | - | - | - | - |
| 1777717500 | 26.11° C | 17% | 1018.8 hPa | - | - | - | - |
| 1777717200 | 25.56° C | 17% | 1018.9 hPa | - | - | - | - |
| 1777716900 | 25.56° C | 17% | 1018.9 hPa | - | - | - | - |
| 1777716600 | 25.56° C | 17% | 1019 hPa | - | - | - | - |
| 1777716300 | 25° C | 19% | 1019 hPa | - | - | - | - |
| 1777716000 | 25° C | 18% | 1019.1 hPa | - | - | - | - |
| 1777715700 | 25° C | 18% | 1019 hPa | - | - | - | - |
| 1777715400 | 25.56° C | 17% | 1019.1 hPa | - | - | - | - |
| 1777715100 | 25° C | 18% | 1019.2 hPa | - | - | - | - |
| 1777714800 | 25° C | 17% | 1019.2 hPa | - | - | - | - |
| 1777714500 | 25° C | 18% | 1019.3 hPa | - | - | - | - |
| 1777714200 | 25° C | 18% | 1019.4 hPa | - | - | - | - |
| 1777713900 | 23.89° C | 19% | 1019.5 hPa | - | - | - | - |
| 1777713600 | 24.44° C | 18% | 1019.5 hPa | - | - | - | - |
| 1777713300 | 25° C | 18% | 1019.6 hPa | - | - | - | - |
| 1777713000 | 25.56° C | 17% | 1019.6 hPa | - | - | - | - |
* Rain since midnight (hover to see other rain measurements)
** Current wind speed in m/s (hover to see current wind gust speed)